sensor_id;sensor_type;location;lat;lon;timestamp;pressure;altitude;pressure_sealevel;temperature;humidity
36354;BME280;22383;51.114;13.666;2022-12-07T00:01:26;67200.97;;;0.12;100.00
36354;BME280;22383;51.114;13.666;2022-12-07T00:03:55;67202.47;;;0.11;100.00
36354;BME280;22383;51.114;13.666;2022-12-07T00:06:32;67206.38;;;0.14;100.00
36354;BME280;22383;51.114;13.666;2022-12-07T00:09:00;67207.31;;;0.13;100.00
36354;BME280;22383;51.114;13.666;2022-12-07T00:11:27;67206.75;;;0.12;100.00
36354;BME280;22383;51.114;13.666;2022-12-07T00:13:56;67208.22;;;0.11;100.00
36354;BME280;22383;51.114;13.666;2022-12-07T00:16:26;67211.59;;;0.14;100.00
36354;BME280;22383;51.114;13.666;2022-12-07T00:18:54;67207.31;;;0.13;100.00
36354;BME280;22383;51.114;13.666;2022-12-07T00:21:24;67206.38;;;0.14;100.00
36354;BME280;22383;51.114;13.666;2022-12-07T00:23:52;67209.00;;;0.14;100.00
36354;BME280;22383;51.114;13.666;2022-12-07T00:26:22;67205.81;;;0.14;100.00
36354;BME280;22383;51.114;13.666;2022-12-07T00:28:52;67206.75;;;0.12;100.00
36354;BME280;22383;51.114;13.666;2022-12-07T00:31:22;67183.88;;;0.13;100.00
36354;BME280;22383;51.114;13.666;2022-12-07T00:33:50;67201.31;;;0.10;100.00
36354;BME280;22383;51.114;13.666;2022-12-07T00:36:19;67208.22;;;0.11;100.00
36354;BME280;22383;51.114;13.666;2022-12-07T00:38:54;67207.84;;;0.13;100.00
36354;BME280;22383;51.114;13.666;2022-12-07T00:41:23;67200.97;;;0.12;100.00
36354;BME280;22383;51.114;13.666;2022-12-07T00:43:51;67205.63;;;0.11;100.00
36354;BME280;22383;51.114;13.666;2022-12-07T00:46:19;67205.25;;;0.13;100.00
36354;BME280;22383;51.114;13.666;2022-12-07T00:48:46;67206.16;;;0.12;100.00
36354;BME280;22383;51.114;13.666;2022-12-07T00:51:15;67208.22;;;0.11;100.00
36354;BME280;22383;51.114;13.666;2022-12-07T00:53:42;67204.16;;;0.12;100.00
36354;BME280;22383;51.114;13.666;2022-12-07T00:56:18;67203.22;;;0.14;100.00
36354;BME280;22383;51.114;13.666;2022-12-07T00:58:53;67207.84;;;0.13;100.00
36354;BME280;22383;51.114;13.666;2022-12-07T01:01:22;67209.91;;;0.13;100.00
36354;BME280;22383;51.114;13.666;2022-12-07T01:03:50;67209.91;;;0.13;100.00
36354;BME280;22383;51.114;13.666;2022-12-07T01:06:18;67209.53;;;0.15;100.00
36354;BME280;22383;51.114;13.666;2022-12-07T01:08:46;67211.00;;;0.14;100.00
36354;BME280;22383;51.114;13.666;2022-12-07T01:11:16;67209.00;;;0.14;100.00
36354;BME280;22383;51.114;13.666;2022-12-07T01:13:43;67206.94;;;0.15;100.00
36354;BME280;22383;51.114;13.666;2022-12-07T01:16:13;67205.25;;;0.13;100.00
36354;BME280;22383;51.114;13.666;2022-12-07T01:18:41;67209.53;;;0.15;100.00
36354;BME280;22383;51.114;13.666;2022-12-07T01:21:10;67208.06;;;0.16;100.00
36354;BME280;22383;51.114;13.666;2022-12-07T01:23:38;67209.53;;;0.15;100.00
36354;BME280;22383;51.114;13.666;2022-12-07T01:26:07;67209.75;;;0.17;100.00
36354;BME280;22383;51.114;13.666;2022-12-07T01:28:36;67205.81;;;0.14;100.00
36354;BME280;22383;51.114;13.666;2022-12-07T01:31:08;67206.16;;;0.12;100.00
36354;BME280;22383;51.114;13.666;2022-12-07T01:33:37;67203.22;;;0.14;100.00
36354;BME280;22383;51.114;13.666;2022-12-07T01:36:12;67209.91;;;0.13;100.00
36354;BME280;22383;51.114;13.666;2022-12-07T01:38:40;67210.09;;;0.15;100.00
36354;BME280;22383;51.114;13.666;2022-12-07T01:41:07;67211.00;;;0.14;100.00
36354;BME280;22383;51.114;13.666;2022-12-07T01:43:35;67208.63;;;0.16;100.00
36354;BME280;22383;51.114;13.666;2022-12-07T01:46:03;67210.47;;;0.13;100.00
36354;BME280;22383;51.114;13.666;2022-12-07T01:48:37;67210.47;;;0.13;100.00
36354;BME280;22383;51.114;13.666;2022-12-07T01:51:08;67210.09;;;0.15;100.00
36354;BME280;22383;51.114;13.666;2022-12-07T01:53:40;67207.50;;;0.15;100.00
36354;BME280;22383;51.114;13.666;2022-12-07T01:56:11;67206.94;;;0.15;100.00
36354;BME280;22383;51.114;13.666;2022-12-07T01:58:42;67210.88;;;0.18;100.00
36354;BME280;22383;51.114;13.666;2022-12-07T02:01:10;67212.16;;;0.15;100.00
36354;BME280;22383;51.114;13.666;2022-12-07T02:03:40;67204.91;;;0.15;100.00
36354;BME280;22383;51.114;13.666;2022-12-07T02:06:08;67206.38;;;0.14;100.00
36354;BME280;22383;51.114;13.666;2022-12-07T02:08:36;67202.78;;;0.09;100.00
36354;BME280;22383;51.114;13.666;2022-12-07T02:11:04;67191.22;;;0.01;100.00
36354;BME280;22383;51.114;13.666;2022-12-07T02:13:33;67179.97;;;-0.10;100.00
36354;BME280;22383;51.114;13.666;2022-12-07T02:24:30;67152.22;;;-0.38;100.00
36354;BME280;22383;51.114;13.666;2022-12-07T02:27:07;67144.38;;;-0.45;100.00
36354;BME280;22383;51.114;13.666;2022-12-07T02:32:12;67134.03;;;-0.57;100.00
36354;BME280;22383;51.114;13.666;2022-12-07T02:35:01;67123.22;;;-0.62;100.00
36354;BME280;22383;51.114;13.666;2022-12-07T02:41:23;67117.19;;;-0.72;100.00
36354;BME280;22383;51.114;13.666;2022-12-07T02:44:14;67110.66;;;-0.76;100.00
36354;BME280;22383;51.114;13.666;2022-12-07T02:47:05;67113.13;;;-0.71;100.00
36354;BME280;22383;51.114;13.666;2022-12-07T02:49:34;67123.22;;;-0.62;100.00
36354;BME280;22383;51.114;13.666;2022-12-07T02:52:03;67130.88;;;-0.57;100.00
36354;BME280;22383;51.114;13.666;2022-12-07T02:54:30;67129.44;;;-0.56;100.00
36354;BME280;22383;51.114;13.666;2022-12-07T03:10:14;67112.34;;;-0.74;100.00
36354;BME280;22383;51.114;13.666;2022-12-07T03:13:05;67109.00;;;-0.77;100.00
36354;BME280;22383;51.114;13.666;2022-12-07T03:18:26;67099.78;;;-0.88;100.00
36354;BME280;22383;51.114;13.666;2022-12-07T03:20:58;67097.75;;;-0.87;100.00
36354;BME280;22383;51.114;13.666;2022-12-07T03:23:29;67092.00;;;-0.88;100.00
36354;BME280;22383;51.114;13.666;2022-12-07T03:26:00;67092.00;;;-0.88;100.00
36354;BME280;22383;51.114;13.666;2022-12-07T03:28:33;67094.59;;;-0.88;100.00
36354;BME280;22383;51.114;13.666;2022-12-07T03:34:25;67096.28;;;-0.86;100.00
36354;BME280;22383;51.114;13.666;2022-12-07T03:37:18;67098.31;;;-0.87;100.00
36354;BME280;22383;51.114;13.666;2022-12-07T03:40:02;67096.06;;;-0.89;100.00
36354;BME280;22383;51.114;13.666;2022-12-07T03:42:32;67096.06;;;-0.89;100.00
36354;BME280;22383;51.114;13.666;2022-12-07T03:45:01;67094.38;;;-0.90;100.00
36354;BME280;22383;51.114;13.666;2022-12-07T03:47:33;67098.13;;;-0.89;100.00
36354;BME280;22383;51.114;13.666;2022-12-07T03:50:13;67099.22;;;-0.88;100.00
36354;BME280;22383;51.114;13.666;2022-12-07T03:52:55;67102.03;;;-0.86;100.00
36354;BME280;22383;51.114;13.666;2022-12-07T03:55:29;67096.63;;;-0.88;100.00
36354;BME280;22383;51.114;13.666;2022-12-07T03:58:11;67101.47;;;-0.86;100.00
36354;BME280;22383;51.114;13.666;2022-12-07T04:00:40;67096.06;;;-0.89;100.00
36354;BME280;22383;51.114;13.666;2022-12-07T04:03:08;67102.59;;;-0.85;100.00
36354;BME280;22383;51.114;13.666;2022-12-07T04:05:37;67095.53;;;-0.89;100.00
36354;BME280;22383;51.114;13.666;2022-12-07T04:08:04;67094.94;;;-0.90;100.00
36354;BME280;22383;51.114;13.666;2022-12-07T04:10:31;67094.94;;;-0.90;100.00
36354;BME280;22383;51.114;13.666;2022-12-07T04:12:58;67093.25;;;-0.91;100.00
36354;BME280;22383;51.114;13.666;2022-12-07T04:15:26;67090.47;;;-0.94;100.00
36354;BME280;22383;51.114;13.666;2022-12-07T04:17:53;67081.69;;;-1.00;100.00
36354;BME280;22383;51.114;13.666;2022-12-07T04:20:21;67082.59;;;-1.01;100.00
36354;BME280;22383;51.114;13.666;2022-12-07T04:22:49;67086.09;;;-1.03;100.00
36354;BME280;22383;51.114;13.666;2022-12-07T04:25:16;67074.16;;;-1.09;100.00
36354;BME280;22383;51.114;13.666;2022-12-07T04:27:43;67074.75;;;-1.08;100.00
36354;BME280;22383;51.114;13.666;2022-12-07T04:30:10;67073.63;;;-1.09;100.00
36354;BME280;22383;51.114;13.666;2022-12-07T04:32:38;67076.44;;;-1.07;100.00
36354;BME280;22383;51.114;13.666;2022-12-07T04:35:05;67075.31;;;-1.08;100.00
36354;BME280;22383;51.114;13.666;2022-12-07T04:37:33;67068.00;;;-1.15;100.00
36354;BME280;22383;51.114;13.666;2022-12-07T04:40:00;67079.03;;;-1.07;100.00
36354;BME280;22383;51.114;13.666;2022-12-07T04:42:28;67071.94;;;-1.11;100.00
36354;BME280;22383;51.114;13.666;2022-12-07T04:44:55;67073.06;;;-1.10;100.00
36354;BME280;22383;51.114;13.666;2022-12-07T04:47:22;67075.50;;;-1.05;100.00
36354;BME280;22383;51.114;13.666;2022-12-07T04:49:49;67078.09;;;-1.05;100.00
36354;BME280;22383;51.114;13.666;2022-12-07T04:52:16;67070.47;;;-1.10;100.00
36354;BME280;22383;51.114;13.666;2022-12-07T04:54:43;67076.44;;;-1.07;100.00
36354;BME280;22383;51.114;13.666;2022-12-07T04:57:10;67078.31;;;-1.03;100.00
36354;BME280;22383;51.114;13.666;2022-12-07T04:59:37;67077.53;;;-1.06;100.00
36354;BME280;22383;51.114;13.666;2022-12-07T05:02:11;67077.53;;;-1.06;100.00
36354;BME280;22383;51.114;13.666;2022-12-07T05:04:38;67083.72;;;-1.00;100.00
36354;BME280;22383;51.114;13.666;2022-12-07T05:07:05;67085.63;;;-0.96;100.00
36354;BME280;22383;51.114;13.666;2022-12-07T05:09:32;67088.22;;;-0.96;100.00
36354;BME280;22383;51.114;13.666;2022-12-07T05:11:59;67087.31;;;-0.94;100.00
36354;BME280;22383;51.114;13.666;2022-12-07T05:14:26;67085.97;;;-0.98;100.00
36354;BME280;22383;51.114;13.666;2022-12-07T05:16:54;67091.00;;;-0.93;100.00
36354;BME280;22383;51.114;13.666;2022-12-07T05:19:21;67092.16;;;-0.92;100.00
36354;BME280;22383;51.114;13.666;2022-12-07T05:21:48;67101.91;;;-0.81;100.00
36354;BME280;22383;51.114;13.666;2022-12-07T05:24:16;67112.50;;;-0.79;100.00
36354;BME280;22383;51.114;13.666;2022-12-07T05:26:44;67109.75;;;-0.74;100.00
36354;BME280;22383;51.114;13.666;2022-12-07T05:29:15;67116.28;;;-0.70;100.00
36354;BME280;22383;51.114;13.666;2022-12-07T05:31:43;67118.53;;;-0.68;100.00
36354;BME280;22383;51.114;13.666;2022-12-07T05:34:11;67122.25;;;-0.67;100.00
36354;BME280;22383;51.114;13.666;2022-12-07T05:36:42;67126.75;;;-0.63;100.00
36354;BME280;22383;51.114;13.666;2022-12-07T05:39:11;67129.44;;;-0.56;100.00
36354;BME280;22383;51.114;13.666;2022-12-07T05:41:42;67139.31;;;-0.49;100.00
36354;BME280;22383;51.114;13.666;2022-12-07T05:44:59;67148.66;;;-0.43;100.00
36354;BME280;22383;51.114;13.666;2022-12-07T05:47:26;67151.13;;;-0.39;100.00
36354;BME280;22383;51.114;13.666;2022-12-07T05:49:53;67152.09;;;-0.33;100.00
36354;BME280;22383;51.114;13.666;2022-12-07T05:52:21;67160.44;;;-0.32;100.00
36354;BME280;22383;51.114;13.666;2022-12-07T05:54:48;67156.16;;;-0.34;100.00
36354;BME280;22383;51.114;13.666;2022-12-07T05:57:15;67155.59;;;-0.34;100.00
36354;BME280;22383;51.114;13.666;2022-12-07T05:59:43;67153.78;;;-0.31;100.00
36354;BME280;22383;51.114;13.666;2022-12-07T06:02:15;67167.75;;;-0.26;100.00
36354;BME280;22383;51.114;13.666;2022-12-07T06:04:45;67168.53;;;-0.23;100.00
36354;BME280;22383;51.114;13.666;2022-12-07T06:07:14;67173.22;;;-0.16;100.00
36354;BME280;22383;51.114;13.666;2022-12-07T06:09:42;67170.78;;;-0.21;100.00
36354;BME280;22383;51.114;13.666;2022-12-07T06:12:11;67175.63;;;-0.18;100.00
36354;BME280;22383;51.114;13.666;2022-12-07T06:14:58;67167.41;;;-0.24;100.00
36354;BME280;22383;51.114;13.666;2022-12-07T06:17:25;67165.88;;;-0.30;100.00
36354;BME280;22383;51.114;13.666;2022-12-07T06:19:54;67165.50;;;-0.28;100.00
36354;BME280;22383;51.114;13.666;2022-12-07T06:22:24;67164.25;;;-0.24;100.00
36354;BME280;22383;51.114;13.666;2022-12-07T06:24:52;67162.56;;;-0.26;100.00
36354;BME280;22383;51.114;13.666;2022-12-07T06:27:19;67172.81;;;-0.21;100.00
36354;BME280;22383;51.114;13.666;2022-12-07T06:29:47;67179.00;;;-0.15;100.00
36354;BME280;22383;51.114;13.666;2022-12-07T06:32:14;67178.28;;;-0.11;100.00
36354;BME280;22383;51.114;13.666;2022-12-07T06:34:41;67182.78;;;-0.07;100.00
36354;BME280;22383;51.114;13.666;2022-12-07T06:37:09;67186.50;;;-0.06;100.00
36354;BME280;22383;51.114;13.666;2022-12-07T06:39:36;67183.13;;;-0.09;100.00
36354;BME280;22383;51.114;13.666;2022-12-07T06:42:03;67181.09;;;-0.09;100.00
36354;BME280;22383;51.114;13.666;2022-12-07T06:44:31;67184.25;;;-0.08;100.00
36354;BME280;22383;51.114;13.666;2022-12-07T06:46:59;67161.97;;;-0.07;100.00
36354;BME280;22383;51.114;13.666;2022-12-07T06:49:46;67185.19;;;-0.10;100.00
36354;BME280;22383;51.114;13.666;2022-12-07T06:52:13;67179.41;;;-0.10;100.00
36354;BME280;22383;51.114;13.666;2022-12-07T06:54:41;67179.19;;;-0.13;100.00
36354;BME280;22383;51.114;13.666;2022-12-07T06:57:08;67180.34;;;-0.12;100.00
36354;BME280;22383;51.114;13.666;2022-12-07T06:59:35;67174.34;;;-0.15;100.00
36354;BME280;22383;51.114;13.666;2022-12-07T07:02:03;67178.84;;;-0.11;100.00
36354;BME280;22383;51.114;13.666;2022-12-07T07:04:30;67182.03;;;-0.10;100.00
36354;BME280;22383;51.114;13.666;2022-12-07T07:06:58;67176.03;;;-0.13;100.00
36354;BME280;22383;51.114;13.666;2022-12-07T07:09:26;67173.22;;;-0.16;100.00
36354;BME280;22383;51.114;13.666;2022-12-07T07:11:54;67168.53;;;-0.23;100.00
36354;BME280;22383;51.114;13.666;2022-12-07T07:14:21;67153.38;;;-0.36;100.00
36354;BME280;22383;51.114;13.666;2022-12-07T07:16:49;67146.84;;;-0.40;100.00
36354;BME280;22383;51.114;13.666;2022-12-07T07:19:16;67148.31;;;-0.41;100.00
36354;BME280;22383;51.114;13.666;2022-12-07T07:21:44;67150.00;;;-0.40;100.00
36354;BME280;22383;51.114;13.666;2022-12-07T07:24:11;67147.38;;;-0.40;100.00
36354;BME280;22383;51.114;13.666;2022-12-07T07:26:39;67151.69;;;-0.38;100.00
36354;BME280;22383;51.114;13.666;2022-12-07T07:29:06;67154.47;;;-0.35;100.00
36354;BME280;22383;51.114;13.666;2022-12-07T07:31:36;67157.66;;;-0.35;100.00
36354;BME280;22383;51.114;13.666;2022-12-07T07:34:04;67158.41;;;-0.32;100.00
36354;BME280;22383;51.114;13.666;2022-12-07T07:36:32;67163.28;;;-0.30;100.00
36354;BME280;22383;51.114;13.666;2022-12-07T07:39:00;67163.47;;;-0.27;100.00
36354;BME280;22383;51.114;13.666;2022-12-07T07:41:28;67164.25;;;-0.24;100.00
36354;BME280;22383;51.114;13.666;2022-12-07T07:43:57;67167.59;;;-0.21;100.00
36354;BME280;22383;51.114;13.666;2022-12-07T07:46:24;67173.03;;;-0.18;100.00
36354;BME280;22383;51.114;13.666;2022-12-07T07:48:55;67177.50;;;-0.14;100.00
36354;BME280;22383;51.114;13.666;2022-12-07T07:51:22;67182.03;;;-0.10;100.00
36354;BME280;22383;51.114;13.666;2022-12-07T07:53:50;67191.91;;;-0.04;100.00
36354;BME280;22383;51.114;13.666;2022-12-07T07:56:18;67198.84;;;0.05;100.00
36354;BME280;22383;51.114;13.666;2022-12-07T07:58:46;67203.00;;;0.11;100.00
36354;BME280;22383;51.114;13.666;2022-12-07T08:01:13;67209.19;;;0.17;100.00
36354;BME280;22383;51.114;13.666;2022-12-07T08:03:42;67214.63;;;0.20;100.00
36354;BME280;22383;51.114;13.666;2022-12-07T08:06:09;67217.41;;;0.22;100.00
36354;BME280;22383;51.114;13.666;2022-12-07T08:08:36;67226.56;;;0.26;100.00
36354;BME280;22383;51.114;13.666;2022-12-07T08:11:08;67224.72;;;0.29;100.00
36354;BME280;22383;51.114;13.666;2022-12-07T08:13:37;67229.44;;;0.35;100.00
36354;BME280;22383;51.114;13.666;2022-12-07T08:16:06;67238.00;;;0.38;100.00
36354;BME280;22383;51.114;13.666;2022-12-07T08:18:37;67239.69;;;0.40;100.00
36354;BME280;22383;51.114;13.666;2022-12-07T08:21:06;67242.69;;;0.45;100.00
36354;BME280;22383;51.114;13.666;2022-12-07T08:23:34;67245.16;;;0.50;100.00
36354;BME280;22383;51.114;13.666;2022-12-07T08:26:09;67246.63;;;0.49;100.00
36354;BME280;22383;51.114;13.666;2022-12-07T08:28:38;67252.25;;;0.54;100.00
36354;BME280;22383;51.114;13.666;2022-12-07T08:31:11;67259.00;;;0.60;100.00
36354;BME280;22383;51.114;13.666;2022-12-07T08:33:39;67262.41;;;0.63;100.00
36354;BME280;22383;51.114;13.666;2022-12-07T08:36:10;67270.03;;;0.68;100.00
36354;BME280;22383;51.114;13.666;2022-12-07T08:38:40;67275.13;;;0.72;100.00
36354;BME280;22383;51.114;13.666;2022-12-07T08:41:22;67271.59;;;0.74;100.00
36354;BME280;22383;51.114;13.666;2022-12-07T08:43:51;67278.88;;;0.81;100.00
36354;BME280;22383;51.114;13.666;2022-12-07T08:46:35;67289.03;;;0.90;100.00
36354;BME280;22383;51.114;13.666;2022-12-07T08:49:12;67294.06;;;0.94;100.00
36354;BME280;22383;51.114;13.666;2022-12-07T08:51:40;67302.31;;;1.00;100.00
36354;BME280;22383;51.114;13.666;2022-12-07T08:54:11;67306.59;;;1.01;100.00
36354;BME280;22383;51.114;13.666;2022-12-07T08:56:44;67308.50;;;1.05;100.00
36354;BME280;22383;51.114;13.666;2022-12-07T08:59:14;67321.44;;;1.17;100.00
36354;BME280;22383;51.114;13.666;2022-12-07T09:01:43;67324.81;;;1.20;100.00
36354;BME280;22383;51.114;13.666;2022-12-07T09:04:10;67332.69;;;1.27;100.00
36354;BME280;22383;51.114;13.666;2022-12-07T09:06:40;67350.69;;;1.44;100.00
36354;BME280;22383;51.114;13.666;2022-12-07T09:09:11;67350.53;;;1.48;100.00
36354;BME280;22383;51.114;13.666;2022-12-07T09:11:40;67357.66;;;1.53;100.00
36354;BME280;22383;51.114;13.666;2022-12-07T09:14:09;67392.31;;;1.82;100.00
36354;BME280;22383;51.114;13.666;2022-12-07T09:16:39;67395.16;;;1.84;100.00
36354;BME280;22383;51.114;13.666;2022-12-07T09:19:08;67388.59;;;1.81;100.00
36354;BME280;22383;51.114;13.666;2022-12-07T09:21:39;67388.94;;;1.79;100.00
36354;BME280;22383;51.114;13.666;2022-12-07T09:24:07;67379.78;;;1.75;100.00
36354;BME280;22383;51.114;13.666;2022-12-07T09:26:52;67389.88;;;1.77;100.00
36354;BME280;22383;51.114;13.666;2022-12-07T09:29:19;67381.47;;;1.77;100.00
36354;BME280;22383;51.114;13.666;2022-12-07T09:31:55;67389.53;;;1.79;100.00
36354;BME280;22383;51.114;13.666;2022-12-07T09:34:26;67379.03;;;1.72;100.00
36354;BME280;22383;51.114;13.666;2022-12-07T09:36:57;67375.09;;;1.68;100.00
36354;BME280;22383;51.114;13.666;2022-12-07T09:39:29;67390.28;;;1.82;100.00
36354;BME280;22383;51.114;13.666;2022-12-07T09:42:02;67412.38;;;1.98;100.00
36354;BME280;22383;51.114;13.666;2022-12-07T09:44:31;67416.72;;;2.06;100.00
36354;BME280;22383;51.114;13.666;2022-12-07T09:47:02;67431.03;;;2.22;100.00
36354;BME280;22383;51.114;13.666;2022-12-07T09:49:31;67465.88;;;2.46;100.00
36354;BME280;22383;51.114;13.666;2022-12-07T09:52:21;67442.22;;;2.25;100.00
36354;BME280;22383;51.114;13.666;2022-12-07T09:54:53;67441.50;;;2.29;100.00
36354;BME280;22383;51.114;13.666;2022-12-07T09:57:31;67455.38;;;2.39;100.00
36354;BME280;22383;51.114;13.666;2022-12-07T10:00:10;67462.34;;;2.48;100.00
36354;BME280;22383;51.114;13.666;2022-12-07T10:02:47;67448.84;;;2.36;100.00
36354;BME280;22383;51.114;13.666;2022-12-07T10:05:42;67496.50;;;2.77;100.00
36354;BME280;22383;51.114;13.666;2022-12-07T10:08:14;67533.88;;;3.13;100.00
36354;BME280;22383;51.114;13.666;2022-12-07T10:10:51;67523.53;;;3.01;100.00
36354;BME280;22383;51.114;13.666;2022-12-07T10:13:40;67532.19;;;3.12;100.00
36354;BME280;22383;51.114;13.666;2022-12-07T10:18:52;67545.94;;;3.27;100.00
36354;BME280;22383;51.114;13.666;2022-12-07T10:21:26;67531.63;;;3.11;100.00
36354;BME280;22383;51.114;13.666;2022-12-07T10:24:29;67514.94;;;2.98;100.00
36354;BME280;22383;51.114;13.666;2022-12-07T10:26:59;67508.53;;;2.90;100.00
36354;BME280;22383;51.114;13.666;2022-12-07T10:29:37;67493.13;;;2.74;100.00
36354;BME280;22383;51.114;13.666;2022-12-07T10:32:31;67474.16;;;2.59;100.00
36354;BME280;22383;51.114;13.666;2022-12-07T10:35:28;67471.38;;;2.56;100.00
36354;BME280;22383;51.114;13.666;2022-12-07T10:37:59;67461.97;;;2.50;100.00
36354;BME280;22383;51.114;13.666;2022-12-07T10:40:28;67469.47;;;2.52;100.00
36354;BME280;22383;51.114;13.666;2022-12-07T10:48:42;67446.38;;;2.31;100.00
36354;BME280;22383;51.114;13.666;2022-12-07T10:54:24;67430.97;;;2.15;100.00
36354;BME280;22383;51.114;13.666;2022-12-07T11:00:02;67422.38;;;2.12;100.00
36354;BME280;22383;51.114;13.666;2022-12-07T11:25:24;67464.41;;;2.48;100.00
36354;BME280;22383;51.114;13.666;2022-12-07T11:28:11;67458.78;;;2.42;100.00
36354;BME280;22383;51.114;13.666;2022-12-07T11:33:29;67436.25;;;2.22;100.00
36354;BME280;22383;51.114;13.666;2022-12-07T11:39:16;67338.53;;;1.35;100.00
36354;BME280;22383;51.114;13.666;2022-12-07T11:42:16;67302.88;;;1.00;100.00
36354;BME280;22383;51.114;13.666;2022-12-07T11:47:39;67313.91;;;1.08;100.00
36354;BME280;22383;51.114;13.666;2022-12-07T11:50:26;67326.84;;;1.20;100.00
36354;BME280;22383;51.114;13.666;2022-12-07T11:52:59;67327.06;;;1.22;100.00
36354;BME280;22383;51.114;13.666;2022-12-07T11:55:52;67327.28;;;1.25;100.00
36354;BME280;22383;51.114;13.666;2022-12-07T12:06:33;67324.81;;;1.20;100.00
36354;BME280;22383;51.114;13.666;2022-12-07T12:12:23;67316.38;;;1.12;100.00
36354;BME280;22383;51.114;13.666;2022-12-07T12:18:58;67351.63;;;1.42;100.00
36354;BME280;22383;51.114;13.666;2022-12-07T12:21:31;67358.22;;;1.53;100.00
36354;BME280;22383;51.114;13.666;2022-12-07T12:24:04;67369.81;;;1.61;100.00
36354;BME280;22383;51.114;13.666;2022-12-07T12:26:37;67371.50;;;1.63;100.00
36354;BME280;22383;51.114;13.666;2022-12-07T12:29:31;67377.13;;;1.68;100.00
36354;BME280;22383;51.114;13.666;2022-12-07T12:34:42;67397.19;;;1.84;100.00
36354;BME280;22383;51.114;13.666;2022-12-07T12:42:48;67412.25;;;2.02;100.00
36354;BME280;22383;51.114;13.666;2022-12-07T12:45:26;67411.47;;;1.99;100.00
36354;BME280;22383;51.114;13.666;2022-12-07T12:48:02;67389.69;;;2.01;100.00
36354;BME280;22383;51.114;13.666;2022-12-07T12:50:32;67407.16;;;1.98;100.00
36354;BME280;22383;51.114;13.666;2022-12-07T12:56:04;67395.72;;;1.85;100.00
36354;BME280;22383;51.114;13.666;2022-12-07T12:58:41;67388.19;;;1.76;100.00
36354;BME280;22383;51.114;13.666;2022-12-07T13:01:38;67373.78;;;1.65;100.00
36354;BME280;22383;51.114;13.666;2022-12-07T13:04:18;67329.88;;;1.25;100.00
36354;BME280;22383;51.114;13.666;2022-12-07T13:06:50;67276.66;;;0.79;100.00
36354;BME280;22383;51.114;13.666;2022-12-07T13:09:29;67257.88;;;0.59;100.00
36354;BME280;22383;51.114;13.666;2022-12-07T13:12:12;67252.84;;;0.54;100.00
36354;BME280;22383;51.114;13.666;2022-12-07T13:20:04;67228.09;;;0.32;100.00
36354;BME280;22383;51.114;13.666;2022-12-07T13:22:40;67226.41;;;0.30;100.00
36354;BME280;22383;51.114;13.666;2022-12-07T13:28:01;67214.38;;;0.17;100.00
36354;BME280;22383;51.114;13.666;2022-12-07T13:30:30;67215.38;;;0.23;100.00
36354;BME280;22383;51.114;13.666;2022-12-07T13:32:59;67228.66;;;0.32;100.00
36354;BME280;22383;51.114;13.666;2022-12-07T13:37:56;67255.44;;;0.54;100.00
36354;BME280;22383;51.114;13.666;2022-12-07T13:40:26;67259.78;;;0.63;100.00
36354;BME280;22383;51.114;13.666;2022-12-07T13:43:19;67271.38;;;0.71;100.00
36354;BME280;22383;51.114;13.666;2022-12-07T13:45:58;67275.88;;;0.75;100.00
36354;BME280;22383;51.114;13.666;2022-12-07T13:48:36;67283.53;;;0.80;100.00
36354;BME280;22383;51.114;13.666;2022-12-07T13:51:25;67285.44;;;0.84;100.00
36354;BME280;22383;51.114;13.666;2022-12-07T13:54:01;67288.81;;;0.87;100.00
36354;BME280;22383;51.114;13.666;2022-12-07T13:56:34;67293.88;;;0.92;100.00
36354;BME280;22383;51.114;13.666;2022-12-07T13:59:02;67297.47;;;0.98;100.00
36354;BME280;22383;51.114;13.666;2022-12-07T14:01:33;67309.97;;;1.04;100.00
36354;BME280;22383;51.114;13.666;2022-12-07T14:04:40;67313.56;;;1.10;100.00
36354;BME280;22383;51.114;13.666;2022-12-07T14:07:27;67309.84;;;1.09;100.00
36354;BME280;22383;51.114;13.666;2022-12-07T14:10:00;67314.69;;;1.11;100.00
36354;BME280;22383;51.114;13.666;2022-12-07T14:12:30;67310.59;;;1.12;100.00
36354;BME280;22383;51.114;13.666;2022-12-07T14:15:00;67313.78;;;1.12;100.00
36354;BME280;22383;51.114;13.666;2022-12-07T14:17:29;67316.94;;;1.13;100.00
36354;BME280;22383;51.114;13.666;2022-12-07T14:20:00;67319.75;;;1.16;100.00
36354;BME280;22383;51.114;13.666;2022-12-07T14:22:35;67329.66;;;1.22;100.00
36354;BME280;22383;51.114;13.666;2022-12-07T14:25:19;67331.56;;;1.26;100.00
36354;BME280;22383;51.114;13.666;2022-12-07T14:30:31;67328.03;;;1.28;100.00
36354;BME280;22383;51.114;13.666;2022-12-07T14:33:02;67330.63;;;1.28;100.00
36354;BME280;22383;51.114;13.666;2022-12-07T14:35:31;67312.59;;;1.30;100.00
36354;BME280;22383;51.114;13.666;2022-12-07T14:37:59;67329.72;;;1.29;100.00
36354;BME280;22383;51.114;13.666;2022-12-07T14:40:27;67335.50;;;1.30;100.00
36354;BME280;22383;51.114;13.666;2022-12-07T14:42:59;67339.22;;;1.31;100.00
36354;BME280;22383;51.114;13.666;2022-12-07T14:45:28;67338.88;;;1.33;100.00
36354;BME280;22383;51.114;13.666;2022-12-07T14:47:56;67339.09;;;1.36;100.00
36354;BME280;22383;51.114;13.666;2022-12-07T14:50:51;67341.69;;;1.36;100.00
36354;BME280;22383;51.114;13.666;2022-12-07T14:53:43;67339.63;;;1.36;100.00
36354;BME280;22383;51.114;13.666;2022-12-07T14:56:16;67335.34;;;1.35;100.00
36354;BME280;22383;51.114;13.666;2022-12-07T14:58:43;67346.00;;;1.37;100.00
36354;BME280;22383;51.114;13.666;2022-12-07T15:01:10;67342.66;;;1.41;100.00
36354;BME280;22383;51.114;13.666;2022-12-07T15:03:37;67351.44;;;1.47;100.00
36354;BME280;22383;51.114;13.666;2022-12-07T15:06:06;67362.66;;;1.50;100.00
36354;BME280;22383;51.114;13.666;2022-12-07T15:08:34;67359.13;;;1.51;100.00
36354;BME280;22383;51.114;13.666;2022-12-07T15:11:01;67356.72;;;1.54;100.00